sensor_id;sensor_type;location;lat;lon;timestamp;pressure;altitude;pressure_sealevel;temperature;humidity
69411;BME280;56604;48.652;9.194;2024-03-29T00:02:24;94603.03;;;7.40;61.15
69411;BME280;56604;48.652;9.194;2024-03-29T00:04:49;94594.69;;;7.38;60.60
69411;BME280;56604;48.652;9.194;2024-03-29T00:07:14;94596.22;;;7.39;60.55
69411;BME280;56604;48.652;9.194;2024-03-29T00:09:40;94581.09;;;7.36;61.66
69411;BME280;56604;48.652;9.194;2024-03-29T00:12:05;94575.84;;;7.36;61.37
69411;BME280;56604;48.652;9.194;2024-03-29T00:14:31;94569.84;;;7.35;61.64
69411;BME280;56604;48.652;9.194;2024-03-29T00:16:57;94563.34;;;7.28;61.44
69411;BME280;56604;48.652;9.194;2024-03-29T00:19:22;94554.47;;;7.29;61.09
69411;BME280;56604;48.652;9.194;2024-03-29T00:21:47;94557.66;;;7.20;62.04
69411;BME280;56604;48.652;9.194;2024-03-29T00:24:13;94548.22;;;7.25;60.92
69411;BME280;56604;48.652;9.194;2024-03-29T00:26:38;94534.63;;;7.22;61.58
69411;BME280;56604;48.652;9.194;2024-03-29T00:29:03;94529.16;;;7.19;61.71
69411;BME280;56604;48.652;9.194;2024-03-29T00:31:29;94529.34;;;7.33;60.58
69411;BME280;56604;48.652;9.194;2024-03-29T00:33:54;94513.34;;;7.39;60.73
69411;BME280;56604;48.652;9.194;2024-03-29T00:36:19;94514.41;;;7.38;60.89
69411;BME280;56604;48.652;9.194;2024-03-29T00:38:44;94505.25;;;7.41;60.35
69411;BME280;56604;48.652;9.194;2024-03-29T00:41:10;94486.94;;;7.46;59.97
69411;BME280;56604;48.652;9.194;2024-03-29T00:43:35;94480.09;;;7.50;59.08
69411;BME280;56604;48.652;9.194;2024-03-29T00:46:00;94479.03;;;7.51;59.65
69411;BME280;56604;48.652;9.194;2024-03-29T00:48:26;94456.75;;;7.59;58.99
69411;BME280;56604;48.652;9.194;2024-03-29T00:50:51;94468.56;;;7.51;59.35
69411;BME280;56604;48.652;9.194;2024-03-29T00:53:17;94482.72;;;7.45;59.17
69411;BME280;56604;48.652;9.194;2024-03-29T00:55:43;94480.22;;;7.35;60.53
69411;BME280;56604;48.652;9.194;2024-03-29T00:58:09;94487.84;;;7.26;60.90
69411;BME280;56604;48.652;9.194;2024-03-29T01:00:36;94498.03;;;7.22;61.28
69411;BME280;56604;48.652;9.194;2024-03-29T01:03:01;94496.47;;;7.27;60.64
69411;BME280;56604;48.652;9.194;2024-03-29T01:05:26;94490.16;;;7.28;60.29
69411;BME280;56604;48.652;9.194;2024-03-29T01:07:52;94495.88;;;7.35;59.90
69411;BME280;56604;48.652;9.194;2024-03-29T01:10:17;94499.78;;;7.37;59.50
69411;BME280;56604;48.652;9.194;2024-03-29T01:12:42;94486.94;;;7.46;58.81
69411;BME280;56604;48.652;9.194;2024-03-29T01:15:08;94482.13;;;7.58;58.04
69411;BME280;56604;48.652;9.194;2024-03-29T01:17:34;94470.16;;;7.52;58.02
69411;BME280;56604;48.652;9.194;2024-03-29T01:19:59;94472.25;;;7.50;57.87
69411;BME280;56604;48.652;9.194;2024-03-29T01:22:24;94461.25;;;7.53;57.56
69411;BME280;56604;48.652;9.194;2024-03-29T01:24:50;94458.16;;;7.46;57.89
69411;BME280;56604;48.652;9.194;2024-03-29T01:27:15;94471.72;;;7.48;58.13
69411;BME280;56604;48.652;9.194;2024-03-29T01:29:40;94470.19;;;7.47;58.17
69411;BME280;56604;48.652;9.194;2024-03-29T01:32:06;94473.34;;;7.44;58.70
69411;BME280;56604;48.652;9.194;2024-03-29T01:34:31;94467.25;;;7.54;57.22
69411;BME280;56604;48.652;9.194;2024-03-29T01:36:57;94454.13;;;7.59;57.37
69411;BME280;56604;48.652;9.194;2024-03-29T01:39:22;94461.72;;;7.60;57.42
69411;BME280;56604;48.652;9.194;2024-03-29T01:41:53;94445.47;;;7.63;56.46
69411;BME280;56604;48.652;9.194;2024-03-29T01:44:20;94449.13;;;7.62;57.06
69411;BME280;56604;48.652;9.194;2024-03-29T01:46:46;94451.53;;;7.59;57.10
69411;BME280;56604;48.652;9.194;2024-03-29T01:49:12;94455.16;;;7.63;56.93
69411;BME280;56604;48.652;9.194;2024-03-29T01:51:39;94461.16;;;7.63;57.42
69411;BME280;56604;48.652;9.194;2024-03-29T01:54:06;94463.81;;;7.58;58.08
69411;BME280;56604;48.652;9.194;2024-03-29T01:56:35;94464.56;;;7.64;56.41
69411;BME280;56604;48.652;9.194;2024-03-29T01:59:03;94462.22;;;7.62;57.17
69411;BME280;56604;48.652;9.194;2024-03-29T02:01:29;94453.88;;;7.60;57.46
69411;BME280;56604;48.652;9.194;2024-03-29T02:03:55;94454.34;;;7.62;57.21
69411;BME280;56604;48.652;9.194;2024-03-29T02:06:21;94462.72;;;7.64;57.26
69411;BME280;56604;48.652;9.194;2024-03-29T02:08:49;94467.72;;;7.61;58.91
69411;BME280;56604;48.652;9.194;2024-03-29T02:11:16;94455.97;;;7.58;58.39
69411;BME280;56604;48.652;9.194;2024-03-29T02:13:42;94457.03;;;7.57;58.59
69411;BME280;56604;48.652;9.194;2024-03-29T02:16:08;94452.81;;;7.61;59.32
69411;BME280;56604;48.652;9.194;2024-03-29T02:18:33;94456.22;;;7.57;59.60
69411;BME280;56604;48.652;9.194;2024-03-29T02:20:58;94458.09;;;7.51;59.81
69411;BME280;56604;48.652;9.194;2024-03-29T02:23:27;94457.88;;;7.48;60.58
69411;BME280;56604;48.652;9.194;2024-03-29T02:25:55;94452.94;;;7.46;60.44
69411;BME280;56604;48.652;9.194;2024-03-29T02:28:22;94453.19;;;7.44;60.91
69411;BME280;56604;48.652;9.194;2024-03-29T02:30:48;94445.66;;;7.43;60.93
69411;BME280;56604;48.652;9.194;2024-03-29T02:33:14;94442.28;;;7.37;61.28
69411;BME280;56604;48.652;9.194;2024-03-29T02:35:39;94440.22;;;7.34;62.15
69411;BME280;56604;48.652;9.194;2024-03-29T02:38:04;94458.00;;;7.32;62.11
69411;BME280;56604;48.652;9.194;2024-03-29T02:40:30;94456.72;;;7.30;62.20
69411;BME280;56604;48.652;9.194;2024-03-29T02:42:55;94421.63;;;7.36;61.47
69411;BME280;56604;48.652;9.194;2024-03-29T02:45:20;94426.59;;;7.37;61.95
69411;BME280;56604;48.652;9.194;2024-03-29T02:47:45;94404.94;;;7.32;62.62
69411;BME280;56604;48.652;9.194;2024-03-29T02:50:13;94416.38;;;7.41;61.20
69411;BME280;56604;48.652;9.194;2024-03-29T02:52:38;94423.69;;;7.39;61.21
69411;BME280;56604;48.652;9.194;2024-03-29T02:55:04;94433.69;;;7.32;61.30
69411;BME280;56604;48.652;9.194;2024-03-29T02:57:29;94440.00;;;7.26;61.85
69411;BME280;56604;48.652;9.194;2024-03-29T02:59:56;94454.22;;;7.14;63.28
69411;BME280;56604;48.652;9.194;2024-03-29T03:02:21;94451.06;;;7.12;62.86
69411;BME280;56604;48.652;9.194;2024-03-29T03:04:47;94450.84;;;7.09;62.90
69411;BME280;56604;48.652;9.194;2024-03-29T03:07:12;94452.63;;;7.13;62.50
69411;BME280;56604;48.652;9.194;2024-03-29T03:09:56;94454.97;;;7.15;62.66
69411;BME280;56604;48.652;9.194;2024-03-29T03:12:40;94457.31;;;7.16;62.21
69411;BME280;56604;48.652;9.194;2024-03-29T03:15:05;94455.44;;;7.22;61.84
69411;BME280;56604;48.652;9.194;2024-03-29T03:17:31;94463.56;;;7.20;62.55
69411;BME280;56604;48.652;9.194;2024-03-29T03:19:56;94467.47;;;7.23;62.46
69411;BME280;56604;48.652;9.194;2024-03-29T03:22:22;94465.88;;;7.27;61.33
69411;BME280;56604;48.652;9.194;2024-03-29T03:24:49;94465.28;;;7.35;61.02
69411;BME280;56604;48.652;9.194;2024-03-29T03:27:14;94468.97;;;7.34;60.73
69411;BME280;56604;48.652;9.194;2024-03-29T03:29:39;94483.78;;;7.44;60.47
69411;BME280;56604;48.652;9.194;2024-03-29T03:32:05;94480.22;;;7.35;61.24
69411;BME280;56604;48.652;9.194;2024-03-29T03:34:32;94486.97;;;7.36;61.35
69411;BME280;56604;48.652;9.194;2024-03-29T03:36:57;94492.69;;;7.43;61.78
69411;BME280;56604;48.652;9.194;2024-03-29T03:39:22;94496.56;;;7.46;60.16
69411;BME280;56604;48.652;9.194;2024-03-29T03:41:48;94491.84;;;7.53;59.27
69411;BME280;56604;48.652;9.194;2024-03-29T03:44:14;94488.31;;;7.68;56.56
69411;BME280;56604;48.652;9.194;2024-03-29T03:46:39;94480.38;;;7.83;56.14
69411;BME280;56604;48.652;9.194;2024-03-29T03:49:04;94490.31;;;7.81;58.14
69411;BME280;56604;48.652;9.194;2024-03-29T03:51:30;94468.66;;;7.75;57.85
69411;BME280;56604;48.652;9.194;2024-03-29T03:53:56;94466.78;;;7.81;56.17
69411;BME280;56604;48.652;9.194;2024-03-29T03:56:22;94478.72;;;7.92;56.23
69411;BME280;56604;48.652;9.194;2024-03-29T03:58:47;94471.63;;;7.93;57.79
69411;BME280;56604;48.652;9.194;2024-03-29T04:01:13;94447.88;;;7.89;59.94
69411;BME280;56604;48.652;9.194;2024-03-29T04:03:38;94430.84;;;8.16;55.51
69411;BME280;56604;48.652;9.194;2024-03-29T04:06:06;94430.09;;;8.39;52.27
69411;BME280;56604;48.652;9.194;2024-03-29T04:08:32;94428.50;;;8.38;51.77
69411;BME280;56604;48.652;9.194;2024-03-29T04:10:58;94402.81;;;8.45;50.50
69411;BME280;56604;48.652;9.194;2024-03-29T04:13:26;94405.91;;;8.47;50.95
69411;BME280;56604;48.652;9.194;2024-03-29T04:15:52;94408.78;;;8.51;50.40
69411;BME280;56604;48.652;9.194;2024-03-29T04:18:17;94408.81;;;8.46;51.15
69411;BME280;56604;48.652;9.194;2024-03-29T04:20:43;94412.16;;;8.51;51.22
69411;BME280;56604;48.652;9.194;2024-03-29T04:23:08;94432.56;;;8.54;50.36
69411;BME280;56604;48.652;9.194;2024-03-29T04:25:33;94443.03;;;8.54;51.36
69411;BME280;56604;48.652;9.194;2024-03-29T04:27:59;94448.81;;;8.51;51.36
69411;BME280;56604;48.652;9.194;2024-03-29T04:30:24;94434.78;;;8.42;51.94
69411;BME280;56604;48.652;9.194;2024-03-29T04:32:50;94432.72;;;8.39;52.09
69411;BME280;56604;48.652;9.194;2024-03-29T04:35:15;94440.00;;;8.42;52.26
69411;BME280;56604;48.652;9.194;2024-03-29T04:37:40;94455.72;;;8.42;52.47
69411;BME280;56604;48.652;9.194;2024-03-29T04:40:06;94473.56;;;8.40;53.66
69411;BME280;56604;48.652;9.194;2024-03-29T04:42:31;94455.53;;;8.33;51.66
69411;BME280;56604;48.652;9.194;2024-03-29T04:44:57;94442.22;;;8.30;53.42
69411;BME280;56604;48.652;9.194;2024-03-29T04:47:22;94463.66;;;8.32;54.35
69411;BME280;56604;48.652;9.194;2024-03-29T04:49:48;94459.91;;;8.43;55.10
69411;BME280;56604;48.652;9.194;2024-03-29T04:52:13;94439.09;;;8.28;55.00
69411;BME280;56604;48.652;9.194;2024-03-29T04:54:38;94438.63;;;8.26;52.93
69411;BME280;56604;48.652;9.194;2024-03-29T04:57:04;94420.84;;;8.23;53.63
69411;BME280;56604;48.652;9.194;2024-03-29T04:59:32;94413.00;;;8.23;53.30
69411;BME280;56604;48.652;9.194;2024-03-29T05:01:58;94407.81;;;8.18;53.63
69411;BME280;56604;48.652;9.194;2024-03-29T05:04:24;94414.16;;;8.11;55.28
69411;BME280;56604;48.652;9.194;2024-03-29T05:06:55;94421.75;;;8.08;56.71
69411;BME280;56604;48.652;9.194;2024-03-29T05:09:21;94425.63;;;8.16;57.03
69411;BME280;56604;48.652;9.194;2024-03-29T05:11:46;94424.75;;;8.25;55.74
69411;BME280;56604;48.652;9.194;2024-03-29T05:14:16;94429.69;;;8.27;55.68
69411;BME280;56604;48.652;9.194;2024-03-29T05:16:45;94434.19;;;8.21;55.93
69411;BME280;56604;48.652;9.194;2024-03-29T05:19:12;94438.16;;;8.19;56.44
69411;BME280;56604;48.652;9.194;2024-03-29T05:21:37;94429.00;;;8.16;56.05
69411;BME280;56604;48.652;9.194;2024-03-29T05:24:02;94431.41;;;8.13;56.38
69411;BME280;56604;48.652;9.194;2024-03-29T05:26:28;94439.81;;;8.09;56.79
69411;BME280;56604;48.652;9.194;2024-03-29T05:28:53;94436.09;;;8.16;56.96
69411;BME280;56604;48.652;9.194;2024-03-29T05:31:22;94426.19;;;8.13;57.92
69411;BME280;56604;48.652;9.194;2024-03-29T05:33:47;94441.84;;;8.18;56.98
69411;BME280;56604;48.652;9.194;2024-03-29T05:36:14;94437.88;;;8.20;58.15
69411;BME280;56604;48.652;9.194;2024-03-29T05:38:39;94437.59;;;8.22;58.13
69411;BME280;56604;48.652;9.194;2024-03-29T05:41:05;94446.47;;;8.26;57.16
69411;BME280;56604;48.652;9.194;2024-03-29T05:43:31;94459.03;;;8.24;55.65
69411;BME280;56604;48.652;9.194;2024-03-29T05:45:57;94459.03;;;8.24;55.38
69411;BME280;56604;48.652;9.194;2024-03-29T05:48:23;94451.13;;;8.29;54.65
69411;BME280;56604;48.652;9.194;2024-03-29T05:50:48;94455.25;;;8.35;54.63
69411;BME280;56604;48.652;9.194;2024-03-29T05:53:15;94472.25;;;8.38;54.52
69411;BME280;56604;48.652;9.194;2024-03-29T05:55:41;94473.22;;;8.47;54.83
69411;BME280;56604;48.652;9.194;2024-03-29T05:58:06;94474.94;;;8.56;54.14
69411;BME280;56604;48.652;9.194;2024-03-29T06:00:32;94468.19;;;8.50;52.80
69411;BME280;56604;48.652;9.194;2024-03-29T06:03:01;94470.09;;;8.45;53.34
69411;BME280;56604;48.652;9.194;2024-03-29T06:05:29;94460.44;;;8.45;52.64
69411;BME280;56604;48.652;9.194;2024-03-29T06:07:56;94458.44;;;8.56;51.86
69411;BME280;56604;48.652;9.194;2024-03-29T06:10:22;94453.94;;;8.62;51.63
69411;BME280;56604;48.652;9.194;2024-03-29T06:12:47;94447.09;;;8.85;50.08
69411;BME280;56604;48.652;9.194;2024-03-29T06:15:13;94456.97;;;9.12;50.74
69411;BME280;56604;48.652;9.194;2024-03-29T06:17:57;94452.56;;;9.26;50.21
69411;BME280;56604;48.652;9.194;2024-03-29T06:20:24;94458.09;;;9.43;49.79
69411;BME280;56604;48.652;9.194;2024-03-29T06:22:49;94459.72;;;9.39;49.63
69411;BME280;56604;48.652;9.194;2024-03-29T06:25:14;94452.97;;;9.33;50.57
69411;BME280;56604;48.652;9.194;2024-03-29T06:27:40;94454.25;;;9.55;51.46
69411;BME280;56604;48.652;9.194;2024-03-29T06:30:06;94454.63;;;9.62;51.21
69411;BME280;56604;48.652;9.194;2024-03-29T06:32:33;94457.94;;;9.35;50.25
69411;BME280;56604;48.652;9.194;2024-03-29T06:34:59;94444.72;;;9.59;50.93
69411;BME280;56604;48.652;9.194;2024-03-29T06:37:25;94445.28;;;9.56;51.34
69411;BME280;56604;48.652;9.194;2024-03-29T06:39:52;94435.97;;;9.82;50.72
69411;BME280;56604;48.652;9.194;2024-03-29T06:42:20;94436.06;;;9.91;51.16
69411;BME280;56604;48.652;9.194;2024-03-29T06:44:45;94438.31;;;10.30;51.20
69411;BME280;56604;48.652;9.194;2024-03-29T06:47:10;94423.50;;;10.34;50.84
69411;BME280;56604;48.652;9.194;2024-03-29T06:49:36;94427.00;;;10.44;50.71
69411;BME280;56604;48.652;9.194;2024-03-29T06:52:01;94424.09;;;10.59;49.98
69411;BME280;56604;48.652;9.194;2024-03-29T06:54:30;94411.31;;;10.66;50.46
69411;BME280;56604;48.652;9.194;2024-03-29T06:56:58;94422.81;;;10.29;49.83
69411;BME280;56604;48.652;9.194;2024-03-29T06:59:24;94421.16;;;10.19;48.65
69411;BME280;56604;48.652;9.194;2024-03-29T07:01:49;94422.28;;;10.13;49.51
69411;BME280;56604;48.652;9.194;2024-03-29T07:04:23;94396.66;;;10.38;48.53
69411;BME280;56604;48.652;9.194;2024-03-29T07:06:52;94413.41;;;10.42;48.59
69411;BME280;56604;48.652;9.194;2024-03-29T07:09:18;94411.16;;;10.35;48.51
69411;BME280;56604;48.652;9.194;2024-03-29T07:11:45;94406.44;;;10.18;48.29
69411;BME280;56604;48.652;9.194;2024-03-29T07:14:11;94419.44;;;10.42;48.54
69411;BME280;56604;48.652;9.194;2024-03-29T07:16:37;94416.59;;;10.39;48.30
69411;BME280;56604;48.652;9.194;2024-03-29T07:19:02;94439.06;;;10.31;48.12
69411;BME280;56604;48.652;9.194;2024-03-29T07:21:28;94437.94;;;10.04;49.44
69411;BME280;56604;48.652;9.194;2024-03-29T07:23:53;94422.69;;;10.20;51.57
69411;BME280;56604;48.652;9.194;2024-03-29T07:26:18;94431.28;;;10.40;52.14
69411;BME280;56604;48.652;9.194;2024-03-29T07:28:44;94444.09;;;10.13;57.05
69411;BME280;56604;48.652;9.194;2024-03-29T07:31:09;94443.88;;;10.10;54.30
69411;BME280;56604;48.652;9.194;2024-03-29T07:33:36;94448.81;;;9.98;62.99
69411;BME280;56604;48.652;9.194;2024-03-29T07:36:02;94460.16;;;9.79;63.94
69411;BME280;56604;48.652;9.194;2024-03-29T07:38:29;94465.56;;;9.69;62.74
69411;BME280;56604;48.652;9.194;2024-03-29T07:40:54;94477.84;;;9.55;65.50
69411;BME280;56604;48.652;9.194;2024-03-29T07:43:21;94498.41;;;9.48;68.27
69411;BME280;56604;48.652;9.194;2024-03-29T07:45:47;94509.41;;;9.50;71.60
69411;BME280;56604;48.652;9.194;2024-03-29T07:48:14;94524.00;;;9.18;74.14
69411;BME280;56604;48.652;9.194;2024-03-29T07:50:41;94530.06;;;8.94;78.74
69411;BME280;56604;48.652;9.194;2024-03-29T07:53:07;94534.06;;;9.11;81.15
69411;BME280;56604;48.652;9.194;2024-03-29T07:55:32;94539.84;;;9.08;80.64
69411;BME280;56604;48.652;9.194;2024-03-29T07:57:57;94540.41;;;9.05;80.49
69411;BME280;56604;48.652;9.194;2024-03-29T08:00:25;94547.88;;;9.16;76.54
69411;BME280;56604;48.652;9.194;2024-03-29T08:02:51;94549.38;;;9.41;70.94
69411;BME280;56604;48.652;9.194;2024-03-29T08:05:19;94544.91;;;9.42;72.14
69411;BME280;56604;48.652;9.194;2024-03-29T08:07:44;94542.66;;;9.54;74.91
69411;BME280;56604;48.652;9.194;2024-03-29T08:10:10;94549.38;;;9.60;74.08
69411;BME280;56604;48.652;9.194;2024-03-29T08:12:35;94547.16;;;9.67;77.16
69411;BME280;56604;48.652;9.194;2024-03-29T08:15:02;94551.06;;;9.70;78.79
69411;BME280;56604;48.652;9.194;2024-03-29T08:17:28;94544.84;;;9.66;79.62
69411;BME280;56604;48.652;9.194;2024-03-29T08:19:53;94551.94;;;9.46;81.39
69411;BME280;56604;48.652;9.194;2024-03-29T08:22:19;94543.06;;;9.61;83.52
69411;BME280;56604;48.652;9.194;2024-03-29T08:24:44;94551.81;;;9.57;83.58
69411;BME280;56604;48.652;9.194;2024-03-29T08:27:10;94554.44;;;9.57;86.35
69411;BME280;56604;48.652;9.194;2024-03-29T08:29:35;94555.28;;;9.71;85.34
69411;BME280;56604;48.652;9.194;2024-03-29T08:32:00;94554.91;;;9.59;87.32
69411;BME280;56604;48.652;9.194;2024-03-29T08:34:26;94550.66;;;9.63;86.70
69411;BME280;56604;48.652;9.194;2024-03-29T08:36:53;94560.31;;;9.49;87.79
69411;BME280;56604;48.652;9.194;2024-03-29T08:39:19;94563.00;;;9.43;89.44
69411;BME280;56604;48.652;9.194;2024-03-29T08:41:44;94550.59;;;9.68;89.74
69411;BME280;56604;48.652;9.194;2024-03-29T08:44:11;94557.72;;;9.81;88.99
69411;BME280;56604;48.652;9.194;2024-03-29T08:46:36;94555.47;;;9.94;90.04
69411;BME280;56604;48.652;9.194;2024-03-29T08:49:02;94553.53;;;9.99;89.98
69411;BME280;56604;48.652;9.194;2024-03-29T08:51:27;94552.47;;;10.00;89.75
69411;BME280;56604;48.652;9.194;2024-03-29T08:53:53;94542.25;;;9.99;89.20
69411;BME280;56604;48.652;9.194;2024-03-29T08:56:19;94538.38;;;10.10;89.31
69411;BME280;56604;48.652;9.194;2024-03-29T08:58:44;94535.50;;;9.93;90.94
69411;BME280;56604;48.652;9.194;2024-03-29T09:01:12;94547.66;;;9.88;91.73
69411;BME280;56604;48.652;9.194;2024-03-29T09:03:39;94562.69;;;10.02;89.97
69411;BME280;56604;48.652;9.194;2024-03-29T09:06:06;94560.53;;;10.04;90.25
69411;BME280;56604;48.652;9.194;2024-03-29T09:08:31;94557.84;;;10.09;91.05
69411;BME280;56604;48.652;9.194;2024-03-29T09:10:56;94556.59;;;9.87;90.85
69411;BME280;56604;48.652;9.194;2024-03-29T09:13:22;94565.16;;;10.12;91.07
69411;BME280;56604;48.652;9.194;2024-03-29T09:15:47;94567.94;;;10.02;93.22
69411;BME280;56604;48.652;9.194;2024-03-29T09:18:14;94571.50;;;9.73;94.63
69411;BME280;56604;48.652;9.194;2024-03-29T09:20:55;94574.81;;;10.17;94.50
69411;BME280;56604;48.652;9.194;2024-03-29T09:23:21;94580.31;;;10.34;92.49
69411;BME280;56604;48.652;9.194;2024-03-29T09:25:49;94582.06;;;10.39;93.04
69411;BME280;56604;48.652;9.194;2024-03-29T09:28:14;94586.72;;;10.28;93.61
69411;BME280;56604;48.652;9.194;2024-03-29T09:30:40;94583.84;;;9.91;95.26
69411;BME280;56604;48.652;9.194;2024-03-29T09:33:05;94606.03;;;9.80;96.82
69411;BME280;56604;48.652;9.194;2024-03-29T09:35:34;94600.28;;;9.40;97.55
69411;BME280;56604;48.652;9.194;2024-03-29T09:37:59;94588.47;;;9.19;97.91
69411;BME280;56604;48.652;9.194;2024-03-29T09:40:25;94578.50;;;9.59;96.20
69411;BME280;56604;48.652;9.194;2024-03-29T09:42:51;94571.34;;;9.83;95.89
69411;BME280;56604;48.652;9.194;2024-03-29T09:45:16;94564.75;;;9.86;95.29
69411;BME280;56604;48.652;9.194;2024-03-29T09:47:44;94564.28;;;10.17;92.65
69411;BME280;56604;48.652;9.194;2024-03-29T09:50:09;94543.47;;;10.39;91.35
69411;BME280;56604;48.652;9.194;2024-03-29T09:52:35;94531.25;;;10.62;86.59
69411;BME280;56604;48.652;9.194;2024-03-29T09:55:03;94535.22;;;11.01;85.71
69411;BME280;56604;48.652;9.194;2024-03-29T09:57:29;94536.47;;;11.67;85.45
69411;BME280;56604;48.652;9.194;2024-03-29T09:59:56;94530.69;;;11.43;83.43
69411;BME280;56604;48.652;9.194;2024-03-29T10:02:25;94531.09;;;11.73;82.57
69411;BME280;56604;48.652;9.194;2024-03-29T10:04:53;94537.56;;;12.11;83.44
69411;BME280;56604;48.652;9.194;2024-03-29T10:07:21;94523.41;;;11.62;83.02
69411;BME280;56604;48.652;9.194;2024-03-29T10:09:47;94513.22;;;11.69;84.68
69411;BME280;56604;48.652;9.194;2024-03-29T10:12:13;94505.84;;;11.94;81.44
69411;BME280;56604;48.652;9.194;2024-03-29T10:14:46;94524.66;;;12.01;82.19
69411;BME280;56604;48.652;9.194;2024-03-29T10:17:18;94515.09;;;12.68;81.66
69411;BME280;56604;48.652;9.194;2024-03-29T10:19:46;94517.53;;;13.04;74.37
69411;BME280;56604;48.652;9.194;2024-03-29T10:22:12;94509.69;;;13.30;68.60
69411;BME280;56604;48.652;9.194;2024-03-29T10:24:38;94515.56;;;14.14;72.44
69411;BME280;56604;48.652;9.194;2024-03-29T10:27:04;94513.59;;;14.67;62.19
69411;BME280;56604;48.652;9.194;2024-03-29T10:29:29;94515.34;;;14.45;64.79
69411;BME280;56604;48.652;9.194;2024-03-29T10:31:58;94512.81;;;14.02;67.83
69411;BME280;56604;48.652;9.194;2024-03-29T10:34:26;94512.97;;;13.88;69.60
69411;BME280;56604;48.652;9.194;2024-03-29T10:36:52;94508.94;;;13.73;72.19
69411;BME280;56604;48.652;9.194;2024-03-29T10:39:19;94520.19;;;13.13;76.52
69411;BME280;56604;48.652;9.194;2024-03-29T10:41:46;94521.78;;;13.31;72.16
69411;BME280;56604;48.652;9.194;2024-03-29T10:44:13;94522.41;;;13.28;72.47
69411;BME280;56604;48.652;9.194;2024-03-29T10:46:40;94523.66;;;13.39;75.36
69411;BME280;56604;48.652;9.194;2024-03-29T10:49:09;94519.22;;;13.09;76.08
69411;BME280;56604;48.652;9.194;2024-03-29T10:51:39;94508.16;;;13.29;76.06
69411;BME280;56604;48.652;9.194;2024-03-29T10:54:07;94507.31;;;13.20;76.41
69411;BME280;56604;48.652;9.194;2024-03-29T10:56:34;94507.31;;;13.20;78.87
69411;BME280;56604;48.652;9.194;2024-03-29T10:59:29;94521.34;;;12.89;77.36
69411;BME280;56604;48.652;9.194;2024-03-29T11:01:59;94490.38;;;12.55;80.80
69411;BME280;56604;48.652;9.194;2024-03-29T11:04:33;94516.31;;;12.62;84.48
69411;BME280;56604;48.652;9.194;2024-03-29T11:07:07;94514.16;;;12.64;82.81
69411;BME280;56604;48.652;9.194;2024-03-29T11:09:37;94517.84;;;12.63;81.73
69411;BME280;56604;48.652;9.194;2024-03-29T11:12:04;94511.22;;;12.74;80.78
69411;BME280;56604;48.652;9.194;2024-03-29T11:15:02;94514.47;;;12.71;82.57
69411;BME280;56604;48.652;9.194;2024-03-29T11:17:30;94511.41;;;12.46;81.73
69411;BME280;56604;48.652;9.194;2024-03-29T11:19:59;94505.81;;;12.79;81.75
69411;BME280;56604;48.652;9.194;2024-03-29T11:22:27;94500.53;;;12.79;81.85
69411;BME280;56604;48.652;9.194;2024-03-29T11:24:53;94497.91;;;12.79;83.17
69411;BME280;56604;48.652;9.194;2024-03-29T11:27:22;94499.78;;;12.78;80.20
69411;BME280;56604;48.652;9.194;2024-03-29T11:29:51;94498.44;;;12.98;82.96
69411;BME280;56604;48.652;9.194;2024-03-29T11:32:39;94497.03;;;12.52;81.97
69411;BME280;56604;48.652;9.194;2024-03-29T11:35:14;94506.00;;;12.51;78.61
69411;BME280;56604;48.652;9.194;2024-03-29T11:37:40;94509.91;;;12.23;76.84
69411;BME280;56604;48.652;9.194;2024-03-29T11:40:06;94511.03;;;12.30;77.23
69411;BME280;56604;48.652;9.194;2024-03-29T11:42:46;94503.94;;;12.40;76.39
69411;BME280;56604;48.652;9.194;2024-03-29T11:45:11;94507.75;;;12.25;76.93
69411;BME280;56604;48.652;9.194;2024-03-29T11:47:39;94512.91;;;12.30;77.85
69411;BME280;56604;48.652;9.194;2024-03-29T11:50:06;94514.84;;;12.47;75.20
69411;BME280;56604;48.652;9.194;2024-03-29T11:52:34;94527.97;;;12.38;74.96
69411;BME280;56604;48.652;9.194;2024-03-29T11:55:00;94533.25;;;12.38;74.99
69411;BME280;56604;48.652;9.194;2024-03-29T11:57:25;94532.13;;;12.30;76.45
69411;BME280;56604;48.652;9.194;2024-03-29T11:59:52;94533.03;;;12.57;74.82
69411;BME280;56604;48.652;9.194;2024-03-29T12:02:17;94526.44;;;12.77;74.88
69411;BME280;56604;48.652;9.194;2024-03-29T12:04:43;94542.97;;;13.09;72.58
69411;BME280;56604;48.652;9.194;2024-03-29T12:07:10;94528.91;;;13.22;74.25
69411;BME280;56604;48.652;9.194;2024-03-29T12:09:35;94524.22;;;13.19;75.16
69411;BME280;56604;48.652;9.194;2024-03-29T12:12:05;94525.88;;;13.81;78.71
69411;BME280;56604;48.652;9.194;2024-03-29T12:14:34;94521.81;;;14.18;73.14
69411;BME280;56604;48.652;9.194;2024-03-29T12:17:00;94523.50;;;14.05;68.81
69411;BME280;56604;48.652;9.194;2024-03-29T12:19:26;94512.59;;;14.24;74.39
69411;BME280;56604;48.652;9.194;2024-03-29T12:21:56;94503.47;;;14.13;68.91
69411;BME280;56604;48.652;9.194;2024-03-29T12:24:21;94512.06;;;13.84;73.34
69411;BME280;56604;48.652;9.194;2024-03-29T12:26:51;94501.31;;;13.63;68.86
69411;BME280;56604;48.652;9.194;2024-03-29T12:29:16;94506.28;;;13.99;72.93
69411;BME280;56604;48.652;9.194;2024-03-29T12:31:42;94502.34;;;14.23;70.50
69411;BME280;56604;48.652;9.194;2024-03-29T12:34:07;94513.88;;;14.09;67.32
69411;BME280;56604;48.652;9.194;2024-03-29T12:36:33;94519.91;;;14.27;69.35
69411;BME280;56604;48.652;9.194;2024-03-29T12:38:59;94507.13;;;14.47;70.79
69411;BME280;56604;48.652;9.194;2024-03-29T12:41:29;94520.38;;;14.29;68.60
69411;BME280;56604;48.652;9.194;2024-03-29T12:43:55;94524.25;;;14.40;67.07
69411;BME280;56604;48.652;9.194;2024-03-29T12:46:21;94522.41;;;14.24;68.98
69411;BME280;56604;48.652;9.194;2024-03-29T12:48:46;94522.66;;;14.57;73.20
69411;BME280;56604;48.652;9.194;2024-03-29T12:51:12;94532.91;;;14.50;70.44
69411;BME280;56604;48.652;9.194;2024-03-29T12:53:38;94525.94;;;14.54;69.51
69411;BME280;56604;48.652;9.194;2024-03-29T12:56:05;94527.53;;;14.84;68.59
69411;BME280;56604;48.652;9.194;2024-03-29T12:58:31;94520.81;;;14.49;69.30
69411;BME280;56604;48.652;9.194;2024-03-29T13:00:56;94533.34;;;14.69;69.18
69411;BME280;56604;48.652;9.194;2024-03-29T13:03:21;94528.47;;;14.89;70.02
69411;BME280;56604;48.652;9.194;2024-03-29T13:05:47;94526.91;;;14.88;66.62